createdAt,value
2023-04-22T00:00:09.192Z,98743.58
2023-04-22T00:03:23.632Z,98750.09
2023-04-22T00:06:36.433Z,98749.06
2023-04-22T00:09:49.568Z,98742.08
2023-04-22T00:13:01.576Z,98746.28
2023-04-22T00:16:15.043Z,98754.73
2023-04-22T00:19:28.350Z,98736.59
2023-04-22T00:22:41.015Z,98742.22
2023-04-22T00:25:53.365Z,98738.78
2023-04-22T00:29:05.784Z,98738.70
2023-04-22T00:32:18.079Z,98740.10
2023-04-22T00:35:30.181Z,98740.23
2023-04-22T00:38:42.049Z,98738.09
2023-04-22T00:41:54.398Z,98737.52
2023-04-22T00:45:06.753Z,98744.14
2023-04-22T00:48:20.124Z,98737.44
2023-04-22T00:51:32.658Z,98747.92
2023-04-22T00:54:45.086Z,98748.19
2023-04-22T00:58:00.602Z,98739.55
2023-04-22T01:01:13.305Z,98744.33
2023-04-22T01:04:26.919Z,98743.39
2023-04-22T01:07:40.554Z,98745.47
2023-04-22T01:10:52.968Z,98743.16
2023-04-22T01:14:05.293Z,98751.80
2023-04-22T01:17:22.336Z,98742.80
2023-04-22T01:20:36.118Z,98726.38
2023-04-22T01:23:48.495Z,98752.19
2023-04-22T01:27:02.296Z,98744.98
2023-04-22T01:30:17.067Z,98750.00
2023-04-22T01:33:29.882Z,98751.34
2023-04-22T01:36:42.301Z,98760.94
2023-04-22T01:39:55.148Z,98754.45
2023-04-22T01:43:08.799Z,98756.25
2023-04-22T01:46:23.537Z,98758.17
2023-04-22T01:49:36.142Z,98748.94
2023-04-22T01:52:48.666Z,98747.76
2023-04-22T01:56:00.902Z,98745.34
2023-04-22T01:59:13.420Z,98753.73
2023-04-22T02:02:25.669Z,98756.97
2023-04-22T02:05:38.197Z,98749.41
2023-04-22T02:08:50.272Z,98751.11
2023-04-22T02:12:02.309Z,98749.66
2023-04-22T02:15:17.169Z,98745.08
2023-04-22T02:18:29.676Z,98747.49
2023-04-22T02:21:41.995Z,98743.16
2023-04-22T02:24:56.164Z,98747.71
2023-04-22T02:28:08.593Z,98745.08
2023-04-22T02:31:22.101Z,98740.77
2023-04-22T02:34:34.803Z,98745.33
2023-04-22T02:37:47.049Z,98744.81
2023-04-22T02:40:59.129Z,98740.98
2023-04-22T02:44:11.691Z,98742.77
2023-04-22T02:47:24.783Z,98740.01
2023-04-22T02:50:37.188Z,98744.56
2023-04-22T02:53:49.692Z,98741.44
2023-04-22T02:57:03.122Z,98749.36
2023-04-22T03:00:17.774Z,98755.56
2023-04-22T03:03:32.250Z,98752.93
2023-04-22T03:06:45.070Z,98745.14
2023-04-22T03:09:57.077Z,98744.16
2023-04-22T03:13:09.228Z,98747.13
2023-04-22T03:16:22.572Z,98751.80
2023-04-22T03:19:35.226Z,98755.41
2023-04-22T03:22:47.750Z,98757.06
2023-04-22T03:26:00.199Z,98760.03
2023-04-22T03:29:15.462Z,98760.28
2023-04-22T03:32:28.548Z,98755.22
2023-04-22T03:35:42.770Z,98765.55
2023-04-22T03:38:55.569Z,98770.09
2023-04-22T03:42:09.080Z,98772.85
2023-04-22T03:45:22.346Z,98765.13
2023-04-22T03:48:37.574Z,98771.48
2023-04-22T03:51:51.488Z,98774.20
2023-04-22T03:55:05.378Z,98767.15
2023-04-22T03:58:18.290Z,98770.52
2023-04-22T04:01:31.432Z,98769.38
2023-04-22T04:04:45.825Z,98768.73
2023-04-22T04:08:00.049Z,98780.94
2023-04-22T04:11:14.314Z,98779.45
2023-04-22T04:14:26.403Z,98778.88
2023-04-22T04:17:38.946Z,98782.76
2023-04-22T04:20:51.844Z,98792.30
2023-04-22T04:24:04.362Z,98790.94
2023-04-22T04:27:17.743Z,98785.48
2023-04-22T04:30:33.662Z,98784.57
2023-04-22T04:33:47.828Z,98789.17
2023-04-22T04:37:01.165Z,98787.52
2023-04-22T04:40:16.994Z,98787.15
2023-04-22T04:43:40.903Z,98783.95
2023-04-22T04:46:55.077Z,98791.63
2023-04-22T04:50:08.524Z,98787.10
2023-04-22T04:53:21.233Z,98782.54
2023-04-22T04:56:33.643Z,98784.94
2023-04-22T04:59:45.858Z,98791.77
2023-04-22T05:02:58.380Z,98790.80
2023-04-22T05:06:13.124Z,98782.89
2023-04-22T05:09:27.492Z,98781.05
2023-04-22T05:12:39.808Z,98785.80
2023-04-22T05:15:53.024Z,98782.40
2023-04-22T05:19:05.438Z,98790.55
2023-04-22T05:22:18.788Z,98775.40
2023-04-22T05:25:32.965Z,98786.88
2023-04-22T05:28:46.990Z,98789.89
2023-04-22T05:31:59.501Z,98791.42
2023-04-22T05:35:14.263Z,98786.55
2023-04-22T05:38:26.623Z,98783.88
2023-04-22T05:41:40.069Z,98783.13
2023-04-22T05:44:54.151Z,98784.05
2023-04-22T05:48:08.581Z,98784.92
2023-04-22T05:51:23.812Z,98780.91
2023-04-22T05:54:36.404Z,98780.36
2023-04-22T05:57:48.862Z,98770.26
2023-04-22T06:01:09.488Z,98775.13
2023-04-22T06:04:29.967Z,98767.03
2023-04-22T06:07:42.661Z,98767.61
2023-04-22T06:10:54.952Z,98767.27
2023-04-22T06:14:07.905Z,98770.98
2023-04-22T06:17:20.490Z,98760.44
2023-04-22T06:20:33.726Z,98755.38
2023-04-22T06:23:46.540Z,98747.36
2023-04-22T06:26:58.955Z,98738.97
2023-04-22T06:30:16.107Z,98728.14
2023-04-22T06:33:28.488Z,98728.53
2023-04-22T06:36:41.408Z,98720.10
2023-04-22T06:39:53.506Z,98713.55
2023-04-22T06:43:10.113Z,98708.38
2023-04-22T06:46:30.068Z,98714.00
2023-04-22T06:49:47.295Z,98714.84
2023-04-22T06:53:14.252Z,98708.51
2023-04-22T06:56:26.856Z,98704.69
2023-04-22T06:59:39.499Z,98704.81
2023-04-22T07:02:52.092Z,98686.66
2023-04-22T07:06:04.714Z,98687.23
2023-04-22T07:09:17.463Z,98686.88
2023-04-22T07:12:30.321Z,98689.95
2023-04-22T07:15:42.733Z,98690.83
2023-04-22T07:18:55.629Z,98692.26
2023-04-22T07:22:07.910Z,98685.53
2023-04-22T07:25:20.340Z,98687.69
2023-04-22T07:28:32.553Z,98675.69
2023-04-22T07:31:44.775Z,98681.92
2023-04-22T07:34:57.274Z,98682.56
2023-04-22T07:38:09.851Z,98680.08
2023-04-22T07:41:22.813Z,98673.32
2023-04-22T07:44:36.121Z,98672.02
2023-04-22T07:47:49.326Z,98685.64
2023-04-22T07:51:01.384Z,98667.33
2023-04-22T07:54:13.792Z,98679.00
2023-04-22T07:57:26.062Z,98668.98
2023-04-22T08:00:39.303Z,98663.03
2023-04-22T08:03:51.777Z,98666.61
2023-04-22T08:07:17.077Z,98674.52
2023-04-22T08:10:18.998Z,98676.00
2023-04-22T08:13:31.228Z,98664.77
2023-04-22T08:16:44.108Z,98665.19
2023-04-22T08:19:56.199Z,98674.05
2023-04-22T08:23:08.374Z,98676.97
2023-04-22T08:26:20.673Z,98670.34
2023-04-22T08:29:33.501Z,98675.13
2023-04-22T08:32:46.007Z,98679.48
2023-04-22T08:35:58.786Z,98661.70
2023-04-22T08:39:11.605Z,98668.64
2023-04-22T08:42:26.143Z,98667.44
2023-04-22T08:45:39.370Z,98661.88
2023-04-22T08:48:52.054Z,98668.17
2023-04-22T08:52:04.279Z,98671.81
2023-04-22T08:55:17.361Z,98677.52
2023-04-22T08:58:30.319Z,98676.77
2023-04-22T09:01:44.038Z,98667.05
2023-04-22T09:04:59.134Z,98672.95
2023-04-22T09:08:12.248Z,98669.34
2023-04-22T09:11:24.757Z,98672.90
2023-04-22T09:14:37.332Z,98676.20
2023-04-22T09:17:49.756Z,98673.44
2023-04-22T09:21:03.896Z,98669.34
2023-04-22T09:24:17.392Z,98668.06
2023-04-22T09:27:31.881Z,98664.09
2023-04-22T09:30:44.272Z,98658.01
2023-04-22T09:34:00.985Z,98659.46
2023-04-22T09:37:13.306Z,98651.91
2023-04-22T09:40:26.516Z,98654.48
2023-04-22T09:43:41.264Z,98641.75
2023-04-22T09:46:56.304Z,98649.05
2023-04-22T09:50:15.731Z,98635.02
2023-04-22T09:53:30.186Z,98637.34
2023-04-22T09:56:54.805Z,98633.13
2023-04-22T10:00:10.832Z,98629.60
2023-04-22T10:03:23.701Z,98627.80
2023-04-22T10:06:36.625Z,98638.27
2023-04-22T10:09:48.903Z,98629.53
2023-04-22T10:13:01.587Z,98622.02
2023-04-22T10:16:14.755Z,98639.94
2023-04-22T10:19:29.663Z,98627.09
2023-04-22T10:22:42.493Z,98616.59
2023-04-22T10:25:57.803Z,98625.31
2023-04-22T10:29:14.025Z,98621.92
2023-04-22T10:32:35.663Z,98619.32
2023-04-22T10:36:03.662Z,98615.75
2023-04-22T10:39:27.028Z,98601.01
2023-04-22T10:42:39.564Z,98612.91
2023-04-22T10:45:51.771Z,98614.80
2023-04-22T10:49:06.663Z,98618.24
2023-04-22T10:52:33.498Z,98607.97
2023-04-22T10:56:01.181Z,98614.33
2023-04-22T10:59:25.131Z,98605.60
2023-04-22T11:02:39.916Z,98602.78
2023-04-22T11:05:52.820Z,98601.56
2023-04-22T11:09:17.740Z,98593.02
2023-04-22T11:12:59.173Z,98597.70
2023-04-22T11:16:14.036Z,98587.69
2023-04-22T11:19:26.475Z,98593.22
2023-04-22T11:22:43.385Z,98594.99
2023-04-22T11:26:00.925Z,98580.45
2023-04-22T11:29:14.377Z,98576.22
2023-04-22T11:32:28.737Z,98580.13
2023-04-22T11:35:43.043Z,98572.55
2023-04-22T11:39:03.417Z,98570.80
2023-04-22T11:42:16.632Z,98567.47
2023-04-22T11:45:29.628Z,98565.41
2023-04-22T11:48:41.656Z,98562.80
2023-04-22T11:52:05.105Z,98558.76
2023-04-22T11:55:21.020Z,98565.94
2023-04-22T11:58:33.972Z,98561.39
2023-04-22T12:01:49.433Z,98547.08
2023-04-22T12:05:04.204Z,98542.30
2023-04-22T12:08:18.870Z,98552.42
2023-04-22T12:11:32.335Z,98550.66
2023-04-22T12:14:44.783Z,98547.59
2023-04-22T12:17:59.213Z,98542.97
2023-04-22T12:21:16.893Z,98545.12
2023-04-22T12:24:35.349Z,98541.64
2023-04-22T12:27:47.748Z,98544.00
2023-04-22T12:30:59.992Z,98547.01
2023-04-22T12:34:12.142Z,98550.97
2023-04-22T12:37:24.769Z,98536.23
2023-04-22T12:40:37.107Z,98544.08
2023-04-22T12:43:49.391Z,98529.52
2023-04-22T12:47:01.530Z,98531.09
2023-04-22T12:50:15.336Z,98517.59
2023-04-22T12:53:28.905Z,98508.83
2023-04-22T12:56:40.982Z,98513.13
2023-04-22T12:59:53.709Z,98509.16
2023-04-22T13:03:05.837Z,98509.61
2023-04-22T13:06:17.992Z,98505.02
2023-04-22T13:09:31.776Z,98504.85
2023-04-22T13:12:44.046Z,98503.73
2023-04-22T13:15:57.285Z,98499.16
2023-04-22T13:19:09.698Z,98502.13
2023-04-22T13:22:21.834Z,98499.41
2023-04-22T13:25:34.117Z,98490.33
2023-04-22T13:28:46.531Z,98495.39
2023-04-22T13:31:58.697Z,98489.92
2023-04-22T13:35:12.951Z,98486.00
2023-04-22T13:38:25.052Z,98491.41
2023-04-22T13:41:37.401Z,98495.40
2023-04-22T13:44:49.527Z,98478.75
2023-04-22T13:48:01.956Z,98484.91
2023-04-22T13:51:14.800Z,98490.42
2023-04-22T13:54:27.556Z,98486.66
2023-04-22T13:57:39.519Z,98481.91
2023-04-22T14:00:51.812Z,98489.41
2023-04-22T14:04:04.164Z,98478.99
2023-04-22T14:07:16.592Z,98479.96
2023-04-22T14:10:29.205Z,98473.34
2023-04-22T14:13:42.167Z,98474.69
2023-04-22T14:16:54.512Z,98470.48
2023-04-22T14:20:07.666Z,98469.73
2023-04-22T14:23:19.891Z,98476.92
2023-04-22T14:26:32.937Z,98464.33
2023-04-22T14:29:46.034Z,98468.30
2023-04-22T14:32:58.345Z,98468.23
2023-04-22T14:36:11.675Z,98472.80
2023-04-22T14:39:24.305Z,98465.83
2023-04-22T14:42:36.725Z,98458.44
2023-04-22T14:45:49.666Z,98455.30
2023-04-22T14:49:01.850Z,98457.70
2023-04-22T14:52:14.753Z,98456.63
2023-04-22T14:55:29.386Z,98463.69
2023-04-22T14:58:41.253Z,98457.78
2023-04-22T15:01:53.803Z,98451.30
2023-04-22T15:05:06.027Z,98446.18
2023-04-22T15:08:19.366Z,98446.18
2023-04-22T15:11:31.369Z,98453.63
2023-04-22T15:14:44.294Z,98450.83
2023-04-22T15:17:56.622Z,98458.42
2023-04-22T15:21:10.889Z,98444.92
2023-04-22T15:24:25.111Z,98454.44
2023-04-22T15:27:37.635Z,98453.25
2023-04-22T15:30:50.447Z,98448.11
2023-04-22T15:34:02.686Z,98456.25
2023-04-22T15:37:15.808Z,98457.11
2023-04-22T15:40:28.609Z,98456.50
2023-04-22T15:43:40.918Z,98461.13
2023-04-22T15:46:53.948Z,98462.41
2023-04-22T15:50:09.106Z,98448.13
2023-04-22T15:53:21.934Z,98462.10
2023-04-22T15:56:37.725Z,98451.55
2023-04-22T15:59:56.308Z,98451.99
2023-04-22T16:03:04.737Z,98452.84
2023-04-22T16:06:17.485Z,98457.64
2023-04-22T16:09:29.535Z,98450.38
2023-04-22T16:12:41.733Z,98452.67
2023-04-22T16:15:54.279Z,98450.42
2023-04-22T16:19:06.772Z,98451.44
2023-04-22T16:22:19.094Z,98455.41
2023-04-22T16:25:32.114Z,98449.63
2023-04-22T16:28:44.536Z,98444.69
2023-04-22T16:31:57.886Z,98447.59
2023-04-22T16:35:11.624Z,98450.50
2023-04-22T16:38:23.842Z,98452.56
2023-04-22T16:41:36.210Z,98450.66
2023-04-22T16:44:48.508Z,98444.84
2023-04-22T16:48:01.227Z,98446.27
2023-04-22T16:51:13.902Z,98454.75
2023-04-22T16:54:26.433Z,98449.56
2023-04-22T16:57:38.902Z,98451.42
2023-04-22T17:00:51.416Z,98460.48
2023-04-22T17:04:04.112Z,98449.52
2023-04-22T17:07:16.518Z,98459.41
2023-04-22T17:10:29.169Z,98452.98
2023-04-22T17:13:41.444Z,98449.17
2023-04-22T17:16:53.630Z,98456.56
2023-04-22T17:20:06.674Z,98457.94
2023-04-22T17:23:20.083Z,98457.67
2023-04-22T17:26:32.215Z,98460.52
2023-04-22T17:29:44.452Z,98461.30
2023-04-22T17:32:56.695Z,98464.14
2023-04-22T17:36:09.355Z,98459.30
2023-04-22T17:39:24.549Z,98465.02
2023-04-22T17:42:45.661Z,98462.03
2023-04-22T17:45:53.026Z,98463.98
2023-04-22T17:49:06.025Z,98478.72
2023-04-22T17:52:18.477Z,98479.24
2023-04-22T17:55:32.819Z,98486.25
2023-04-22T17:58:45.135Z,98490.56
2023-04-22T18:01:58.977Z,98494.30
2023-04-22T18:05:13.926Z,98500.61
2023-04-22T18:08:26.130Z,98502.52
2023-04-22T18:11:38.971Z,98499.48
2023-04-22T18:14:52.310Z,98502.61
2023-04-22T18:18:04.543Z,98509.28
2023-04-22T18:21:16.810Z,98511.11
2023-04-22T18:24:29.236Z,98511.11
2023-04-22T18:27:41.697Z,98512.22
2023-04-22T18:30:54.792Z,98511.11
2023-04-22T18:34:08.416Z,98519.61
2023-04-22T18:37:21.344Z,98520.53
2023-04-22T18:40:34.273Z,98515.64
2023-04-22T18:43:48.008Z,98510.71
2023-04-22T18:47:00.615Z,98518.83
2023-04-22T18:50:15.266Z,98516.52
2023-04-22T18:53:27.606Z,98518.25
2023-04-22T18:56:40.091Z,98514.98
2023-04-22T18:59:52.641Z,98518.16
2023-04-22T19:03:05.765Z,98520.78
2023-04-22T19:06:18.296Z,98517.73
2023-04-22T19:09:31.824Z,98517.97
2023-04-22T19:12:44.866Z,98513.98
2023-04-22T19:15:57.431Z,98523.23
2023-04-22T19:19:10.162Z,98523.00
2023-04-22T19:22:22.486Z,98515.63
2023-04-22T19:25:34.884Z,98517.80
2023-04-22T19:28:48.896Z,98509.48
2023-04-22T19:32:02.122Z,98515.06
2023-04-22T19:35:16.736Z,98512.61
2023-04-22T19:38:29.163Z,98513.31
2023-04-22T19:41:42.486Z,98521.69
2023-04-22T19:44:55.199Z,98507.52
2023-04-22T19:48:09.618Z,98510.34
2023-04-22T19:51:22.618Z,98509.35
2023-04-22T19:54:38.362Z,98497.83
2023-04-22T19:57:51.496Z,98505.88
2023-04-22T20:01:05.145Z,98503.02
2023-04-22T20:04:19.645Z,98500.05
2023-04-22T20:07:33.111Z,98490.02
2023-04-22T20:10:48.265Z,98497.08
2023-04-22T20:14:01.965Z,98508.11
2023-04-22T20:17:16.208Z,98512.80
2023-04-22T20:20:29.655Z,98511.20
2023-04-22T20:23:42.420Z,98513.56
2023-04-22T20:26:56.584Z,98501.06
2023-04-22T20:30:13.158Z,98509.54
2023-04-22T20:33:26.133Z,98502.16
2023-04-22T20:36:39.292Z,98508.95
2023-04-22T20:39:53.477Z,98502.28
2023-04-22T20:43:06.114Z,98506.27
2023-04-22T20:46:19.727Z,98508.45
2023-04-22T20:49:33.394Z,98501.78
2023-04-22T20:52:46.046Z,98497.75
2023-04-22T20:55:58.258Z,98506.03
2023-04-22T20:59:10.803Z,98507.34
2023-04-22T21:02:24.990Z,98505.99
2023-04-22T21:05:41.200Z,98496.28
2023-04-22T21:08:54.982Z,98499.28
2023-04-22T21:12:10.698Z,98498.14
2023-04-22T21:15:25.993Z,98495.61
2023-04-22T21:18:42.128Z,98499.55
2023-04-22T21:21:56.160Z,98496.20
2023-04-22T21:25:10.028Z,98493.50
2023-04-22T21:28:24.298Z,98486.10
2023-04-22T21:31:38.065Z,98495.21
2023-04-22T21:34:50.345Z,98491.70
2023-04-22T21:38:02.535Z,98501.16
2023-04-22T21:41:15.453Z,98499.03
2023-04-22T21:44:27.618Z,98497.50
2023-04-22T21:47:39.902Z,98494.00
2023-04-22T21:50:52.584Z,98495.98
2023-04-22T21:54:04.999Z,98501.11
2023-04-22T21:57:17.310Z,98499.52
2023-04-22T22:00:29.509Z,98502.70
2023-04-22T22:03:42.118Z,98495.34
2023-04-22T22:06:54.582Z,98502.95
2023-04-22T22:10:06.604Z,98497.64
2023-04-22T22:13:19.065Z,98500.06
2023-04-22T22:16:31.458Z,98493.70
2023-04-22T22:19:43.648Z,98498.39
2023-04-22T22:22:55.876Z,98496.73
2023-04-22T22:26:08.520Z,98499.31
2023-04-22T22:29:21.010Z,98502.89
2023-04-22T22:32:33.129Z,98509.70
2023-04-22T22:35:45.633Z,98507.28
2023-04-22T22:38:58.753Z,98507.72
2023-04-22T22:42:11.128Z,98500.88
2023-04-22T22:45:23.475Z,98505.38
2023-04-22T22:48:36.189Z,98512.06
2023-04-22T22:51:48.652Z,98513.25
2023-04-22T22:55:01.022Z,98510.20
2023-04-22T22:58:12.978Z,98514.44
2023-04-22T23:01:25.164Z,98513.91
2023-04-22T23:04:39.592Z,98511.09
2023-04-22T23:07:51.725Z,98522.59
2023-04-22T23:11:03.787Z,98515.37
2023-04-22T23:14:16.581Z,98519.45
2023-04-22T23:17:28.634Z,98519.71
2023-04-22T23:20:41.446Z,98509.83
2023-04-22T23:23:54.675Z,98513.77
2023-04-22T23:27:10.182Z,98504.11
2023-04-22T23:30:25.071Z,98511.38
2023-04-22T23:33:40.328Z,98509.81
2023-04-22T23:36:53.424Z,98511.55
2023-04-22T23:40:07.024Z,98508.79
2023-04-22T23:43:19.375Z,98511.17
2023-04-22T23:46:31.756Z,98509.37
2023-04-22T23:49:44.032Z,98511.06
2023-04-22T23:52:57.625Z,98507.75
2023-04-22T23:56:12.207Z,98505.28
2023-04-22T23:59:26.296Z,98507.66
